Whitehouse, Ohio
Current Conditions -  °F | °C
As of 9:52 AM on Tuesday 21 Oct 2014 (Local Time) from KTOL Reporting Station
Overcast Overcast  
Wind Chill: 44°   Ceiling: 1500
Heat Index: 48°   Visibility: 10mi
Dew Point: 43°   Wind: 8mph
Humidity: 83%   Direction: 340°NNW
Pressure: 30"   Gusts: NA
Location:  41.52°N, 83.8°W
Report Text: KTOL 211352Z AUTO 34007KT 10SM OVC015 09/06 A3000 RMK AO2 SLP160 T00890061 $
Loading
Personal Weather Stations






























Interactive Weather Map
Tropical Storm Tracking
New forecast layout! Learn more

10-Day Weather Forecast

Advertisements
Track Severe Weather on mobile